createdAt,value
2023-04-29T00:01:59.303Z,8.07
2023-04-29T00:12:02.637Z,9.40
2023-04-29T00:22:06.854Z,9.07
2023-04-29T00:32:09.674Z,11.23
2023-04-29T00:42:14.036Z,14.10
2023-04-29T00:52:19.054Z,17.27
2023-04-29T01:02:23.648Z,16.93
2023-04-29T01:12:33.937Z,17.20
2023-04-29T01:22:39.412Z,16.23
2023-04-29T01:32:52.122Z,17.70
2023-04-29T01:43:03.448Z,17.37
2023-04-29T01:53:10.246Z,14.77
2023-04-29T02:03:14.056Z,13.87
2023-04-29T02:13:22.802Z,13.13
2023-04-29T02:23:25.961Z,20.50
2023-04-29T02:33:30.469Z,24.60
2023-04-29T02:55:44.573Z,39.40
2023-04-29T03:05:47.734Z,38.23
2023-04-29T03:15:52.835Z,37.03
2023-04-29T03:25:55.984Z,42.20
2023-04-29T03:36:01.859Z,37.83
2023-04-29T03:46:23.481Z,38.47
2023-04-29T03:56:27.901Z,37.20
2023-04-29T04:06:32.133Z,42.03
2023-04-29T04:16:36.868Z,53.13
2023-04-29T04:26:41.615Z,60.77
2023-04-29T04:36:52.711Z,75.70
2023-04-29T04:46:56.718Z,78.13
2023-04-29T04:57:23.858Z,87.17
2023-04-29T05:07:27.277Z,90.03
2023-04-29T05:17:38.921Z,97.50
2023-04-29T05:27:42.776Z,91.20
2023-04-29T05:37:52.273Z,71.50
2023-04-29T05:48:11.485Z,75.67
2023-04-29T05:58:16.162Z,73.10
2023-04-29T06:08:19.833Z,72.47
2023-04-29T06:18:30.194Z,62.80
2023-04-29T06:28:34.796Z,51.30
2023-04-29T06:38:39.952Z,48.93
2023-04-29T06:48:58.155Z,46.90
2023-04-29T06:59:02.528Z,39.93
2023-04-29T07:09:05.949Z,37.93
2023-04-29T07:19:10.428Z,37.33
2023-04-29T07:29:13.413Z,30.57
2023-04-29T07:39:18.351Z,30.07
2023-04-29T07:49:26.195Z,27.40
2023-04-29T07:59:30.792Z,23.00
2023-04-29T08:09:34.009Z,26.47
2023-04-29T08:19:41.164Z,25.80
2023-04-29T08:29:44.572Z,27.27
2023-04-29T08:39:49.255Z,27.23
2023-04-29T08:49:52.235Z,25.60
2023-04-29T08:59:56.516Z,21.97
2023-04-29T09:10:00.456Z,23.87
2023-04-29T09:20:28.871Z,28.43
2023-04-29T09:30:31.925Z,24.60
2023-04-29T09:40:50.210Z,22.33
2023-04-29T09:51:04.179Z,20.63
2023-04-29T10:01:09.381Z,24.00
2023-04-29T10:11:13.128Z,23.90
2023-04-29T10:21:19.629Z,22.30
2023-04-29T10:31:23.363Z,24.53
2023-04-29T10:41:29.164Z,32.17
2023-04-29T10:51:33.734Z,33.50
2023-04-29T11:01:51.974Z,36.63
2023-04-29T11:12:02.875Z,36.10
2023-04-29T11:22:13.545Z,39.97
2023-04-29T11:32:18.429Z,41.97
2023-04-29T11:42:24.644Z,49.37
2023-04-29T11:52:27.826Z,43.23
2023-04-29T12:02:32.833Z,33.43
2023-04-29T12:12:36.415Z,26.53
2023-04-29T12:22:40.966Z,32.50
2023-04-29T12:32:45.235Z,45.23
2023-04-29T12:42:49.588Z,44.73
2023-04-29T12:52:53.240Z,43.90
2023-04-29T13:02:57.741Z,48.57
2023-04-29T13:13:01.101Z,53.60
2023-04-29T13:23:05.601Z,56.00
2023-04-29T13:33:12.218Z,65.40
2023-04-29T13:43:26.493Z,57.97
2023-04-29T13:54:04.915Z,101.07
2023-04-29T14:04:01.032Z,107.80
2023-04-29T14:14:04.670Z,108.33
2023-04-29T14:24:10.712Z,112.30
2023-04-29T14:34:13.843Z,100.63
2023-04-29T14:44:18.946Z,89.87
2023-04-29T14:54:22.099Z,85.00
2023-04-29T15:04:27.713Z,73.13
2023-04-29T15:14:30.767Z,60.77
2023-04-29T15:24:35.104Z,63.83
2023-04-29T15:34:38.776Z,60.50
2023-04-29T15:44:43.321Z,63.03
2023-04-29T15:54:46.590Z,65.20
2023-04-29T16:04:50.796Z,50.73
2023-04-29T16:14:55.778Z,68.40
2023-04-29T16:25:03.916Z,57.50
2023-04-29T16:35:07.397Z,52.40
2023-04-29T16:45:13.363Z,50.67
2023-04-29T16:55:16.838Z,49.77
2023-04-29T17:05:21.724Z,45.30
2023-04-29T17:15:24.855Z,43.77
2023-04-29T17:25:29.309Z,48.13
2023-04-29T17:35:33.557Z,42.43
2023-04-29T17:45:42.392Z,41.47
2023-04-29T17:55:46.249Z,35.40
2023-04-29T18:05:50.775Z,40.47
2023-04-29T18:15:53.882Z,37.50
2023-04-29T18:25:59.878Z,39.37
2023-04-29T18:36:02.695Z,41.97
2023-04-29T18:46:07.300Z,38.40
2023-04-29T18:56:10.438Z,40.80
2023-04-29T19:06:14.986Z,49.00
2023-04-29T19:16:18.063Z,64.97
2023-04-29T19:26:23.551Z,55.53
2023-04-29T19:36:26.665Z,50.27
2023-04-29T19:46:31.600Z,46.40
2023-04-29T19:57:01.930Z,54.67
2023-04-29T20:07:06.340Z,52.77
2023-04-29T20:17:12.199Z,48.20
2023-04-29T20:27:16.367Z,54.10
2023-04-29T20:37:20.078Z,52.50
2023-04-29T20:47:28.881Z,55.93
2023-04-29T20:57:33.037Z,55.17
2023-04-29T21:07:39.171Z,50.93
2023-04-29T21:17:42.428Z,65.70
2023-04-29T21:27:46.953Z,53.53
2023-04-29T21:37:50.269Z,61.60
2023-04-29T21:47:55.849Z,58.17
2023-04-29T21:57:59.221Z,55.27
2023-04-29T22:08:07.224Z,58.43
2023-04-29T22:18:11.225Z,57.77
2023-04-29T22:28:16.225Z,65.13
2023-04-29T22:38:19.436Z,65.83
2023-04-29T22:48:26.752Z,75.80
2023-04-29T22:58:30.483Z,80.23
2023-04-29T23:08:34.895Z,82.07
2023-04-29T23:18:37.676Z,77.03
2023-04-29T23:28:43.550Z,77.33
2023-04-29T23:38:47.275Z,72.07
2023-04-29T23:48:51.997Z,75.47
2023-04-29T23:58:55.099Z,69.63
